Time;durP1;ratioP1;P1;durP2;ratioP2;P2;SDS_P1;SDS_P2;PMS_P1;PMS_P2;Temp;Humidity;BMP_temperature;BMP_pressure;BME280_temperature;BME280_humidity;BME280_pressure;Samples;Min_cycle;Max_cycle;Signal;HPM_P1;HPM_P2
2023/10/03 00:00:31;;;;;;;1.38;0.85;;;15.10;66.30;;;;;;5033375;28;20738;-73
2023/10/03 00:03:13;;;;;;;0.85;0.57;;;15.10;66.50;;;;;;5051601;28;20104;-72
2023/10/03 00:05:42;;;;;;;2.08;1.33;;;15.20;66.70;;;;;;5017506;28;20375;-72
2023/10/03 00:08:08;;;;;;;1.48;1.05;;;15.30;66.70;;;;;;5034475;28;20367;-73
2023/10/03 00:10:38;;;;;;;4.75;2.05;;;15.20;66.90;;;;;;5033010;28;20163;-72
2023/10/03 00:13:24;;;;;;;0.98;0.52;;;15.20;67.20;;;;;;5038087;28;20039;-73
2023/10/03 00:15:50;;;;;;;0.65;0.45;;;15.20;67.40;;;;;;5054870;28;20493;-73
2023/10/03 00:18:16;;;;;;;1.30;0.85;;;15.10;67.50;;;;;;5055276;28;20075;-73
2023/10/03 00:20:43;;;;;;;0.55;0.45;;;15.20;67.40;;;;;;5054277;28;20053;-72
2023/10/03 00:23:09;;;;;;;4.50;1.58;;;15.10;66.70;;;;;;5036822;28;20048;-73
2023/10/03 00:25:36;;;;;;;3.38;1.10;;;15.20;67.20;;;;;;5036570;28;20099;-73
2023/10/03 00:28:02;;;;;;;;;;;15.20;67.70;;;;;;5055534;28;20033;-73
2023/10/03 00:30:30;;;;;;;1.63;1.08;;;15.20;68.00;;;;;;5052702;28;19927;-72
2023/10/03 00:33:10;;;;;;;3.55;1.75;;;15.20;68.00;;;;;;5054896;28;20319;-72
2023/10/03 00:35:37;;;;;;;0.93;0.52;;;15.10;68.30;;;;;;5020480;28;20389;-72
2023/10/03 00:38:09;;;;;;;1.20;0.90;;;15.10;68.50;;;;;;5055006;28;20460;-72
2023/10/03 00:40:36;;;;;;;3.35;1.65;;;15.00;68.40;;;;;;5053712;28;20063;-72
2023/10/03 00:43:02;;;;;;;0.52;0.45;;;15.00;68.50;;;;;;5036717;28;20489;-72
2023/10/03 00:45:30;;;;;;;0.95;0.63;;;15.00;67.80;;;;;;5036040;28;20044;-72
2023/10/03 00:47:58;;;;;;;3.10;1.95;;;15.00;68.20;;;;;;5036842;28;20042;-72
2023/10/03 00:50:28;;;;;;;1.20;1.00;;;14.90;68.60;;;;;;5035844;28;20059;-73
2023/10/03 00:52:57;;;;;;;1.15;1.05;;;15.00;68.60;;;;;;5019997;28;20053;-72
2023/10/03 00:55:26;;;;;;;5.63;1.27;;;15.00;68.90;;;;;;5036126;28;20045;-72
2023/10/03 01:00:45;;;;;;;1.00;0.40;;;15.00;68.90;;;;;;5053663;28;20037;-72
2023/10/03 01:03:49;;;;;;;0.47;0.47;;;15.00;69.20;;;;;;5036406;28;20048;-72
2023/10/03 01:06:16;;;;;;;1.27;1.10;;;15.00;69.30;;;;;;5053837;28;20029;-73
2023/10/03 01:09:00;;;;;;;;;;;15.00;69.50;;;;;;5053623;28;20033;-72
2023/10/03 01:11:28;;;;;;;1.40;0.77;;;15.00;69.40;;;;;;5052024;28;19961;-72
2023/10/03 01:14:00;;;;;;;1.83;0.80;;;14.90;69.90;;;;;;5036713;28;20036;-72
2023/10/03 01:16:33;;;;;;;1.88;1.23;;;14.90;69.90;;;;;;5036552;28;20029;-72
2023/10/03 01:21:51;;;;;;;0.55;0.40;;;14.90;70.00;;;;;;5053062;28;20288;-72
2023/10/03 01:24:20;;;;;;;3.97;0.90;;;14.90;70.00;;;;;;5034959;28;20041;-72
2023/10/03 01:27:05;;;;;;;1.13;0.63;;;14.90;69.30;;;;;;5052313;28;20028;-72
2023/10/03 01:29:31;;;;;;;0.73;0.57;;;14.90;70.00;;;;;;5052513;28;20047;-72
2023/10/03 01:31:58;;;;;;;0.50;0.50;;;14.90;69.90;;;;;;5034891;28;20033;-72
2023/10/03 01:34:24;;;;;;;1.27;0.77;;;14.90;70.10;;;;;;5035864;28;20045;-72
2023/10/03 01:36:51;;;;;;;4.13;0.93;;;14.90;70.40;;;;;;5053257;28;20119;-72
2023/10/03 01:39:17;;;;;;;0.52;0.45;;;14.80;70.30;;;;;;5035792;28;20041;-72
2023/10/03 01:41:43;;;;;;;;;;;14.80;70.50;;;;;;5053209;28;20420;-72
2023/10/03 01:44:09;;;;;;;2.35;0.90;;;14.80;70.30;;;;;;5053695;28;19920;-71
2023/10/03 01:46:38;;;;;;;0.57;0.57;;;14.70;70.40;;;;;;5035127;28;20112;-72
2023/10/03 01:49:05;;;;;;;1.35;0.52;;;14.60;70.40;;;;;;5052400;28;20068;-72
2023/10/03 01:51:31;;;;;;;0.95;0.55;;;14.60;70.00;;;;;;5052323;28;20029;-72
2023/10/03 01:53:57;;;;;;;1.63;0.88;;;14.50;70.30;;;;;;5035256;28;20033;-72
2023/10/03 01:56:24;;;;;;;;;;;14.40;70.20;;;;;;5053440;28;20437;-72
2023/10/03 01:58:50;;;;;;;;;;;14.30;69.90;;;;;;5054273;28;19925;-72
2023/10/03 02:01:16;;;;;;;1.30;1.10;;;14.30;69.80;;;;;;5052194;28;20016;-72
2023/10/03 02:03:45;;;;;;;1.42;0.65;;;14.30;69.70;;;;;;5035078;28;20119;-72
2023/10/03 02:06:11;;;;;;;1.83;1.25;;;14.30;69.60;;;;;;5052567;28;20028;-72
2023/10/03 02:08:37;;;;;;;0.70;0.35;;;14.20;69.20;;;;;;5035508;28;20048;-73
2023/10/03 02:11:05;;;;;;;1.60;1.15;;;14.20;69.10;;;;;;5052093;28;20087;-72
2023/10/03 02:13:32;;;;;;;0.55;0.47;;;14.10;69.00;;;;;;5035275;28;20440;-72
2023/10/03 02:15:58;;;;;;;3.58;1.33;;;14.00;69.00;;;;;;5052410;28;20053;-72
2023/10/03 02:18:24;;;;;;;;;;;14.00;69.50;;;;;;5019316;28;20056;-72
2023/10/03 02:20:59;;;;;;;2.55;1.85;;;14.00;69.50;;;;;;5050811;28;19948;-72
2023/10/03 02:23:26;;;;;;;1.40;0.70;;;14.00;69.90;;;;;;5052325;28;20076;-72
2023/10/03 02:26:11;;;;;;;0.77;0.40;;;13.90;70.10;;;;;;5034424;28;20029;-72
2023/10/03 02:28:38;;;;;;;3.97;1.05;;;13.90;70.60;;;;;;5035025;28;20041;-72
2023/10/03 02:31:07;;;;;;;1.33;1.00;;;13.90;70.60;;;;;;5050600;28;20517;-72
2023/10/03 02:33:53;;;;;;;0.75;0.50;;;13.90;71.00;;;;;;5035116;28;20504;-72
2023/10/03 02:36:19;;;;;;;3.53;2.08;;;13.90;71.00;;;;;;5050868;28;20021;-72
2023/10/03 02:38:45;;;;;;;;;;;13.90;71.50;;;;;;5035311;28;20044;-72
2023/10/03 02:41:12;;;;;;;2.17;1.05;;;13.90;72.30;;;;;;5050265;28;20354;-72
2023/10/03 02:46:26;;;;;;;1.10;0.40;;;13.90;71.10;;;;;;5036822;28;20067;-72
2023/10/03 02:48:55;;;;;;;0.40;0.38;;;13.90;72.00;;;;;;5051311;28;20504;-72
2023/10/03 02:51:21;;;;;;;0.85;0.63;;;14.00;72.10;;;;;;5051403;28;20533;-72
2023/10/03 02:53:47;;;;;;;0.63;0.32;;;14.00;72.00;;;;;;5034488;28;20041;-72
2023/10/03 02:56:14;;;;;;;0.60;0.32;;;14.00;71.90;;;;;;5034146;28;20075;-72
2023/10/03 02:58:40;;;;;;;;;;;14.10;72.10;;;;;;5053118;28;20064;-72
2023/10/03 03:01:06;;;;;;;0.90;0.85;;;14.10;71.90;;;;;;5051325;28;19966;-72
2023/10/03 03:03:32;;;;;;;0.88;0.40;;;14.10;71.70;;;;;;5034493;28;20040;-72
2023/10/03 03:06:18;;;;;;;6.70;0.90;;;14.20;71.70;;;;;;5051582;28;20045;-72
2023/10/03 03:08:46;;;;;;;2.10;1.23;;;14.20;71.80;;;;;;5052221;28;20037;-72
2023/10/03 03:11:12;;;;;;;0.57;0.52;;;14.10;72.20;;;;;;5033229;28;20034;-72
2023/10/03 03:13:38;;;;;;;1.33;0.80;;;14.10;72.30;;;;;;5034529;28;20044;-72
2023/10/03 03:16:05;;;;;;;0.30;0.20;;;14.10;72.50;;;;;;5051556;28;20041;-72
2023/10/03 03:18:40;;;;;;;0.65;0.65;;;14.10;72.30;;;;;;5052309;28;20079;-72
2023/10/03 03:21:25;;;;;;;0.10;0.10;;;14.10;72.20;;;;;;5050013;28;20041;-72
2023/10/03 03:24:00;;;;;;;1.15;0.95;;;14.20;72.40;;;;;;5014223;28;20120;-71
2023/10/03 03:26:36;;;;;;;0.95;0.57;;;14.20;72.20;;;;;;5031724;28;20561;-72
2023/10/03 03:29:05;;;;;;;1.00;0.65;;;14.10;71.70;;;;;;5032547;28;20132;-72
2023/10/03 03:31:32;;;;;;;1.92;0.38;;;14.10;72.30;;;;;;5031128;28;20041;-72
2023/10/03 03:34:00;;;;;;;2.00;1.33;;;14.10;72.30;;;;;;5047336;28;20425;-72
2023/10/03 03:36:30;;;;;;;1.15;0.68;;;14.00;72.10;;;;;;5013757;28;20037;-72
2023/10/03 03:39:14;;;;;;;1.88;1.02;;;14.00;72.00;;;;;;5046778;28;20044;-72
2023/10/03 03:41:41;;;;;;;0.93;0.63;;;14.00;71.90;;;;;;5015176;28;20453;-72
2023/10/03 03:44:13;;;;;;;0.52;0.40;;;14.00;72.10;;;;;;5046499;28;20060;-72
2023/10/03 03:46:58;;;;;;;0.22;0.22;;;14.00;72.10;;;;;;5015912;28;20026;-71
2023/10/03 03:49:25;;;;;;;0.30;0.30;;;13.90;72.00;;;;;;5035476;28;20153;-72
2023/10/03 03:51:51;;;;;;;2.35;1.00;;;13.90;72.00;;;;;;5049595;28;20347;-72
2023/10/03 03:54:17;;;;;;;1.40;0.85;;;13.90;71.90;;;;;;5035353;28;20046;-72
2023/10/03 03:56:44;;;;;;;2.88;1.10;;;13.90;71.80;;;;;;5017093;28;20044;-72
2023/10/03 03:59:13;;;;;;;0.60;0.30;;;13.90;72.00;;;;;;5035399;28;20488;-72
2023/10/03 04:01:39;;;;;;;1.05;0.32;;;13.90;72.00;;;;;;5016252;28;20033;-72
2023/10/03 04:04:07;;;;;;;0.98;0.70;;;13.90;72.00;;;;;;5050450;28;20044;-71
2023/10/03 04:06:33;;;;;;;1.15;0.40;;;13.80;71.90;;;;;;5034806;28;20029;-72
2023/10/03 04:08:59;;;;;;;0.73;0.65;;;13.80;71.80;;;;;;5035046;28;20037;-72
2023/10/03 04:11:25;;;;;;;0.95;0.60;;;13.80;71.90;;;;;;5033687;28;20034;-71
2023/10/03 04:13:55;;;;;;;1.33;0.82;;;13.70;72.00;;;;;;5050284;28;20052;-72
2023/10/03 04:16:22;;;;;;;0.68;0.55;;;13.70;72.00;;;;;;5034145;28;20038;-72
2023/10/03 04:19:07;;;;;;;1.58;1.25;;;13.70;71.70;;;;;;5000540;28;20044;-72
2023/10/03 04:21:35;;;;;;;1.83;1.10;;;13.70;71.70;;;;;;5049538;28;20545;-72
2023/10/03 04:24:01;;;;;;;0.40;0.38;;;13.60;71.50;;;;;;5053395;28;20044;-72
2023/10/03 04:26:27;;;;;;;1.02;0.70;;;13.50;71.70;;;;;;5019425;28;20036;-71
2023/10/03 04:28:53;;;;;;;3.53;2.20;;;13.60;71.80;;;;;;5054477;28;20080;-72
2023/10/03 04:31:20;;;;;;;1.45;0.85;;;13.50;71.60;;;;;;5035690;28;20410;-72
2023/10/03 04:33:46;;;;;;;;;;;13.50;70.90;;;;;;5037032;28;20444;-71
2023/10/03 04:36:14;;;;;;;0.38;0.30;;;13.60;71.20;;;;;;5052349;28;19919;-71
2023/10/03 04:38:41;;;;;;;1.77;1.02;;;13.40;70.80;;;;;;5053152;28;20037;-72
2023/10/03 04:41:09;;;;;;;1.55;0.82;;;13.50;71.70;;;;;;5051928;28;20142;-72
2023/10/03 04:43:36;;;;;;;0.77;0.50;;;13.50;71.60;;;;;;5036399;28;20405;-72
2023/10/03 04:46:02;;;;;;;0.70;0.40;;;13.50;71.50;;;;;;5052307;28;20032;-72
2023/10/03 04:48:28;;;;;;;0.90;0.50;;;13.50;71.60;;;;;;5036239;28;20367;-72
2023/10/03 04:50:54;;;;;;;1.63;0.30;;;13.50;71.60;;;;;;5035087;28;20116;-71
2023/10/03 04:53:21;;;;;;;;;;;13.50;71.50;;;;;;5054520;28;20037;-72
2023/10/03 04:55:48;;;;;;;0.10;0.10;;;13.50;71.70;;;;;;5035515;28;19919;-71
2023/10/03 04:58:15;;;;;;;2.38;0.98;;;13.60;71.70;;;;;;5034922;28;20032;-72
2023/10/03 05:00:44;;;;;;;0.60;0.47;;;13.50;71.50;;;;;;5051776;28;20119;-72
2023/10/03 05:03:10;;;;;;;0.90;0.52;;;13.50;71.60;;;;;;5053689;28;20041;-72
2023/10/03 05:05:37;;;;;;;;;;;13.60;71.60;;;;;;5035678;28;20067;-71
2023/10/03 05:08:04;;;;;;;0.73;0.43;;;13.50;71.00;;;;;;5019422;28;19925;-72
2023/10/03 05:10:30;;;;;;;0.75;0.50;;;13.60;71.50;;;;;;5018152;28;20037;-71
2023/10/03 05:12:57;;;;;;;1.35;1.00;;;13.60;71.80;;;;;;5035559;28;20116;-71
2023/10/03 05:15:26;;;;;;;1.70;0.85;;;13.60;71.20;;;;;;5052996;28;20029;-72
2023/10/03 05:17:54;;;;;;;0.93;0.70;;;13.70;72.10;;;;;;5036176;28;20025;-72
2023/10/03 05:20:20;;;;;;;1.00;0.50;;;13.70;72.10;;;;;;5051448;28;20033;-71
2023/10/03 05:22:46;;;;;;;;;;;13.70;71.80;;;;;;5034444;28;20056;-72
2023/10/03 05:25:17;;;;;;;0.35;0.32;;;13.70;72.20;;;;;;5035185;28;20031;-71
2023/10/03 05:27:48;;;;;;;0.80;0.60;;;13.70;72.10;;;;;;5053004;28;20112;-71
2023/10/03 05:30:14;;;;;;;1.95;0.88;;;13.70;72.20;;;;;;5034668;28;20686;-72
2023/10/03 05:32:45;;;;;;;0.47;0.40;;;13.70;72.10;;;;;;5053261;28;20032;-71
2023/10/03 05:35:12;;;;;;;0.50;0.45;;;13.80;72.20;;;;;;5035252;28;20394;-72
2023/10/03 05:37:39;;;;;;;0.40;0.40;;;13.80;72.30;;;;;;5035207;28;20021;-71
2023/10/03 05:40:15;;;;;;;0.93;0.55;;;13.80;71.80;;;;;;5034277;28;20025;-72
2023/10/03 05:42:47;;;;;;;0.20;0.20;;;13.80;72.40;;;;;;5053397;28;20049;-72
2023/10/03 05:45:14;;;;;;;1.02;0.75;;;13.90;72.60;;;;;;5035130;28;20047;-71
2023/10/03 05:47:54;;;;;;;0.10;0.10;;;13.90;72.50;;;;;;5051608;28;20421;-71
2023/10/03 05:50:21;;;;;;;0.35;0.32;;;14.00;72.40;;;;;;5051721;28;20033;-71
2023/10/03 05:52:48;;;;;;;0.65;0.40;;;14.00;71.90;;;;;;5026914;28;20545;-72
2023/10/03 05:55:14;;;;;;;0.22;0.22;;;14.00;72.20;;;;;;5036667;28;20041;-72
2023/10/03 05:57:42;;;;;;;3.00;1.20;;;14.10;72.30;;;;;;5051377;28;20059;-72
2023/10/03 06:00:27;;;;;;;0.95;0.45;;;14.10;71.80;;;;;;5050540;28;20028;-72
2023/10/03 06:02:53;;;;;;;0.82;0.77;;;14.20;72.60;;;;;;5053019;28;20063;-71
2023/10/03 06:05:21;;;;;;;0.82;0.38;;;14.20;72.50;;;;;;5050804;28;20398;-71
2023/10/03 06:07:48;;;;;;;0.28;0.28;;;14.20;72.40;;;;;;5052335;28;20029;-72
2023/10/03 06:10:16;;;;;;;0.43;0.43;;;14.20;72.30;;;;;;5051271;28;20079;-72
2023/10/03 06:12:42;;;;;;;0.57;0.43;;;14.30;72.10;;;;;;5051978;28;20036;-71
2023/10/03 06:15:09;;;;;;;0.52;0.30;;;14.30;71.90;;;;;;5050801;28;20257;-72
2023/10/03 06:17:35;;;;;;;1.27;1.15;;;14.40;71.60;;;;;;5028998;28;20029;-72
2023/10/03 06:20:03;;;;;;;;;;;14.50;71.50;;;;;;5052827;28;20445;-71
2023/10/03 06:22:29;;;;;;;0.88;0.60;;;14.60;71.10;;;;;;5033070;28;20396;-71
2023/10/03 06:24:57;;;;;;;0.95;0.80;;;14.60;70.70;;;;;;5052397;28;20037;-71
2023/10/03 06:27:26;;;;;;;0.52;0.40;;;14.60;70.70;;;;;;5033900;28;20078;-72
2023/10/03 06:29:52;;;;;;;0.52;0.22;;;14.70;70.60;;;;;;5034532;28;20132;-72
2023/10/03 06:32:18;;;;;;;0.32;0.22;;;14.80;70.50;;;;;;5033445;28;20033;-72
2023/10/03 06:34:44;;;;;;;0.70;0.40;;;14.80;70.40;;;;;;5034421;28;20041;-71
2023/10/03 06:37:10;;;;;;;1.17;0.70;;;14.90;70.30;;;;;;5051420;28;20059;-71
2023/10/03 06:39:36;;;;;;;2.22;1.10;;;15.00;69.90;;;;;;5034420;28;20041;-72
2023/10/03 06:42:03;;;;;;;1.40;0.93;;;15.00;69.90;;;;;;5033088;28;20494;-71
2023/10/03 06:44:29;;;;;;;1.35;1.20;;;15.10;69.90;;;;;;5052122;28;20033;-72
2023/10/03 06:46:55;;;;;;;1.70;1.25;;;15.10;69.40;;;;;;5051537;28;20040;-72
2023/10/03 06:49:23;;;;;;;2.08;1.30;;;15.10;69.50;;;;;;5052288;28;20052;-71
2023/10/03 06:51:57;;;;;;;0.65;0.63;;;15.20;69.40;;;;;;5032943;28;20467;-72
2023/10/03 06:54:24;;;;;;;0.95;0.80;;;15.20;69.10;;;;;;5034989;28;20091;-72
2023/10/03 06:56:50;;;;;;;0.75;0.52;;;15.20;69.20;;;;;;5033749;28;20022;-72
2023/10/03 06:59:17;;;;;;;0.98;0.82;;;15.30;69.50;;;;;;5033906;28;20036;-72
2023/10/03 07:01:43;;;;;;;0.30;0.30;;;15.40;69.60;;;;;;5016415;28;20041;-72
2023/10/03 07:04:10;;;;;;;0.10;0.10;;;15.50;69.50;;;;;;5034089;28;20041;-72
2023/10/03 07:06:36;;;;;;;0.20;0.20;;;15.50;69.10;;;;;;5033396;28;20063;-72
2023/10/03 07:09:07;;;;;;;1.13;0.75;;;15.60;68.90;;;;;;5051815;28;20045;-72
2023/10/03 07:11:33;;;;;;;0.98;0.40;;;15.60;68.90;;;;;;5050689;28;20095;-72
2023/10/03 07:13:59;;;;;;;;;;;15.70;68.10;;;;;;5032949;28;20037;-71
2023/10/03 07:16:25;;;;;;;2.47;0.60;;;15.80;68.10;;;;;;5015613;28;20373;-72
2023/10/03 07:18:52;;;;;;;0.10;0.10;;;15.90;68.10;;;;;;5033701;28;20091;-72
2023/10/03 07:21:19;;;;;;;0.52;0.32;;;16.00;68.30;;;;;;5024787;28;20041;-72
2023/10/03 07:23:45;;;;;;;0.30;0.30;;;16.20;68.00;;;;;;5037772;28;20518;-72
2023/10/03 07:26:11;;;;;;;;;;;16.40;67.70;;;;;;5037734;28;20127;-72
2023/10/03 07:28:38;;;;;;;0.43;0.30;;;16.60;67.40;;;;;;5037727;28;19924;-72
2023/10/03 07:31:09;;;;;;;0.88;0.77;;;16.70;66.80;;;;;;5054567;28;20048;-72
2023/10/03 07:33:35;;;;;;;0.20;0.20;;;16.90;66.40;;;;;;5037622;28;20036;-72
2023/10/03 07:36:20;;;;;;;0.45;0.38;;;16.90;66.10;;;;;;5054913;28;20032;-72
2023/10/03 07:38:46;;;;;;;0.55;0.38;;;16.90;66.50;;;;;;5037440;28;20061;-72
2023/10/03 07:41:13;;;;;;;0.40;0.40;;;17.20;66.30;;;;;;5036593;28;20029;-72
2023/10/03 07:43:58;;;;;;;0.65;0.60;;;17.50;65.70;;;;;;5054053;28;20106;-72
2023/10/03 07:46:26;;;;;;;3.03;1.02;;;17.70;65.10;;;;;;5054793;28;20501;-73
2023/10/03 07:48:52;;;;;;;0.40;0.40;;;17.80;64.50;;;;;;5055216;28;20029;-72
2023/10/03 07:51:23;;;;;;;1.00;0.77;;;17.80;64.40;;;;;;5052652;28;20103;-72
2023/10/03 07:53:51;;;;;;;2.55;0.40;;;17.90;64.10;;;;;;5037423;28;20041;-73
2023/10/03 07:56:32;;;;;;;1.02;0.35;;;18.10;64.20;;;;;;5053416;28;20029;-72
2023/10/03 08:01:44;;;;;;;0.38;0.22;;;18.40;63.50;;;;;;5038846;28;20048;-72
2023/10/03 08:06:55;;;;;;;1.20;0.60;;;19.10;61.80;;;;;;5039364;28;20036;-72
2023/10/03 08:09:24;;;;;;;0.25;0.25;;;20.80;57.80;;;;;;5036979;28;20440;-73
2023/10/03 08:11:52;;;;;;;1.33;0.57;;;21.60;56.70;;;;;;5053822;28;20040;-72
2023/10/03 08:14:18;;;;;;;1.95;0.85;;;22.00;55.00;;;;;;5037106;28;20037;-73
2023/10/03 08:16:46;;;;;;;0.82;0.60;;;22.30;54.10;;;;;;5036296;28;20037;-73
2023/10/03 08:19:30;;;;;;;0.25;0.20;;;23.40;51.80;;;;;;5035270;28;20045;-73
2023/10/03 08:21:58;;;;;;;1.40;1.02;;;24.80;48.70;;;;;;5043336;28;20063;-73
2023/10/03 08:24:25;;;;;;;2.05;0.93;;;26.10;45.30;;;;;;5053027;28;20397;-73
2023/10/03 08:26:52;;;;;;;3.60;1.30;;;27.20;42.40;;;;;;5036283;28;20029;-73
2023/10/03 08:29:22;;;;;;;0.50;0.38;;;28.20;39.60;;;;;;5036407;28;20044;-73
2023/10/03 08:32:06;;;;;;;1.80;0.98;;;29.10;38.40;;;;;;5053159;28;20037;-73
2023/10/03 08:34:32;;;;;;;1.40;1.30;;;30.00;36.40;;;;;;5036506;28;20072;-73
2023/10/03 08:36:58;;;;;;;3.72;0.95;;;30.80;34.70;;;;;;5053691;28;20424;-73
2023/10/03 08:42:35;;;;;;;1.70;1.02;;;32.00;30.90;;;;;;5038581;28;20524;-73
2023/10/03 08:45:25;;;;;;;1.50;0.95;;;32.80;29.80;;;;;;5053806;28;20120;-74
2023/10/03 08:47:53;;;;;;;0.57;0.57;;;33.60;28.70;;;;;;5036876;28;20579;-73
2023/10/03 08:50:58;;;;;;;1.70;0.68;;;34.10;27.70;;;;;;5052903;28;20025;-73
2023/10/03 08:56:17;;;;;;;0.50;0.50;;;35.50;25.70;;;;;;5038413;28;20445;-73
2023/10/03 08:58:50;;;;;;;0.70;0.55;;;36.10;25.40;;;;;;5020376;28;20092;-73
2023/10/03 09:01:18;;;;;;;0.80;0.80;;;36.70;24.00;;;;;;5035868;28;20041;-73
2023/10/03 09:03:47;;;;;;;1.05;0.60;;;37.10;23.30;;;;;;5036126;28;20116;-74
2023/10/03 09:06:38;;;;;;;1.15;0.57;;;37.30;22.70;;;;;;5019083;28;20482;-74
2023/10/03 09:11:51;;;;;;;1.63;0.80;;;37.90;22.20;;;;;;5037010;28;20525;-74
2023/10/03 09:17:03;;;;;;;1.08;0.77;;;35.50;23.50;;;;;;5053291;28;20044;-74
2023/10/03 09:19:50;;;;;;;1.60;1.05;;;33.60;26.30;;;;;;5053519;28;20537;-74
2023/10/03 09:22:32;;;;;;;1.95;1.05;;;32.30;28.10;;;;;;5034704;28;20053;-74
2023/10/03 09:24:58;;;;;;;2.70;1.48;;;31.30;28.80;;;;;;5035842;28;20037;-74
2023/10/03 09:27:30;;;;;;;2.83;1.50;;;31.20;29.00;;;;;;5035029;28;20041;-74
2023/10/03 09:29:58;;;;;;;1.45;1.05;;;31.20;28.80;;;;;;5053585;28;20478;-74
2023/10/03 09:32:25;;;;;;;1.33;0.90;;;30.90;29.10;;;;;;5034962;28;20074;-73
2023/10/03 09:34:58;;;;;;;1.90;1.08;;;30.40;29.90;;;;;;5053502;28;20041;-74
2023/10/03 09:37:48;;;;;;;1.02;0.80;;;29.70;30.30;;;;;;5052659;28;20033;-73
2023/10/03 09:40:18;;;;;;;2.22;0.60;;;29.10;31.50;;;;;;5034751;28;20136;-74
2023/10/03 09:45:34;;;;;;;2.60;2.38;;;28.40;33.10;;;;;;5036888;28;20037;-73
2023/10/03 09:48:05;;;;;;;2.90;1.60;;;27.90;33.70;;;;;;5035245;28;20060;-73
2023/10/03 09:50:32;;;;;;;1.70;0.82;;;27.70;34.70;;;;;;5033242;28;20065;-73
2023/10/03 09:53:01;;;;;;;1.00;0.80;;;27.40;35.70;;;;;;5052520;28;20444;-73
2023/10/03 09:55:52;;;;;;;1.35;0.98;;;27.40;35.90;;;;;;5029511;28;20032;-73
2023/10/03 09:58:24;;;;;;;1.95;0.70;;;27.20;35.70;;;;;;4998968;28;20577;-73
2023/10/03 10:00:53;;;;;;;0.73;0.40;;;26.90;36.30;;;;;;5014316;28;20044;-73
2023/10/03 10:07:14;;;;;;;1.92;1.15;;;26.50;37.80;;;;;;5031127;28;20036;-73
2023/10/03 10:10:07;;;;;;;1.00;0.80;;;26.20;38.10;;;;;;5032909;28;20045;-73
2023/10/03 10:12:38;;;;;;;1.77;1.50;;;26.30;38.10;;;;;;5032018;28;20052;-73
2023/10/03 10:17:56;;;;;;;1.65;0.68;;;26.40;37.20;;;;;;5031257;28;20026;-73
2023/10/03 10:20:43;;;;;;;2.38;1.40;;;26.60;38.10;;;;;;5031414;28;20069;-73
2023/10/03 10:28:27;;;;;;;2.63;0.70;;;26.30;39.20;;;;;;5032650;28;20409;-73
2023/10/03 10:31:16;;;;;;;1.08;0.88;;;26.20;39.50;;;;;;5013744;28;20033;-73
2023/10/03 10:33:43;;;;;;;1.92;1.50;;;26.20;39.60;;;;;;5031146;28;20037;-73
2023/10/03 10:36:10;;;;;;;2.08;1.05;;;26.10;40.10;;;;;;5031808;28;20034;-73
2023/10/03 10:38:36;;;;;;;1.77;0.98;;;26.10;40.10;;;;;;5014706;28;20056;-73
2023/10/03 10:44:27;;;;;;;1.75;1.23;;;26.00;40.90;;;;;;5030954;28;20045;-73
2023/10/03 10:47:05;;;;;;;0.68;0.47;;;26.00;41.40;;;;;;5030423;28;20037;-73
2023/10/03 10:49:33;;;;;;;1.58;0.60;;;26.00;40.40;;;;;;5030932;28;20080;-72
2023/10/03 10:52:06;;;;;;;2.28;1.15;;;26.10;41.40;;;;;;5031259;28;20030;-73
2023/10/03 10:54:36;;;;;;;1.98;1.55;;;26.10;41.00;;;;;;5014757;28;20413;-72
2023/10/03 10:57:05;;;;;;;2.75;1.73;;;26.10;40.60;;;;;;5030106;28;20025;-72
2023/10/03 10:59:35;;;;;;;2.90;1.75;;;26.20;41.00;;;;;;5014425;28;20474;-72
2023/10/03 11:02:04;;;;;;;0.90;0.80;;;26.10;41.40;;;;;;5030077;28;20087;-73
2023/10/03 11:07:37;;;;;;;3.58;2.30;;;26.50;41.20;;;;;;5030662;28;20044;-73
2023/10/03 11:10:21;;;;;;;1.80;1.10;;;28.70;37.20;;;;;;5029935;28;20318;-72
2023/10/03 11:12:59;;;;;;;1.08;1.00;;;29.00;36.00;;;;;;5031685;28;20060;-73
2023/10/03 11:15:26;;;;;;;3.40;1.30;;;28.40;36.70;;;;;;5029852;28;20099;-73
2023/10/03 11:17:52;;;;;;;1.10;1.02;;;27.80;38.80;;;;;;5030506;28;20140;-73
2023/10/03 11:20:19;;;;;;;1.52;1.08;;;27.50;39.70;;;;;;5029443;28;20030;-72
2023/10/03 11:22:47;;;;;;;1.55;1.13;;;27.30;40.70;;;;;;5031483;28;20047;-72
2023/10/03 11:25:13;;;;;;;3.30;1.08;;;27.50;40.70;;;;;;5031022;28;20079;-73
2023/10/03 11:27:40;;;;;;;0.88;0.68;;;28.30;39.10;;;;;;5031595;28;20451;-73
2023/10/03 11:30:25;;;;;;;2.38;0.88;;;29.20;37.30;;;;;;5030914;28;20029;-73
2023/10/03 11:33:01;;;;;;;2.92;1.13;;;29.00;37.90;;;;;;5031594;28;20079;-73
2023/10/03 11:35:27;;;;;;;1.05;0.82;;;28.60;38.20;;;;;;5030915;28;20128;-73
2023/10/03 11:37:54;;;;;;;1.23;0.98;;;28.40;38.60;;;;;;5030461;28;20021;-73
2023/10/03 11:40:23;;;;;;;0.73;0.65;;;28.50;38.50;;;;;;5029632;28;20363;-73
2023/10/03 11:43:08;;;;;;;0.70;0.52;;;28.30;39.20;;;;;;5014118;28;20036;-73
2023/10/03 11:45:34;;;;;;;2.40;1.08;;;28.10;39.50;;;;;;5029571;28;20107;-73
2023/10/03 11:48:19;;;;;;;2.33;0.90;;;28.00;40.00;;;;;;5013760;28;20041;-73
2023/10/03 11:50:46;;;;;;;0.77;0.75;;;29.20;37.50;;;;;;5029059;28;20045;-73
2023/10/03 11:53:13;;;;;;;2.47;1.00;;;29.90;36.10;;;;;;5030288;28;20037;-73
2023/10/03 11:55:43;;;;;;;2.80;1.35;;;29.80;36.00;;;;;;5030831;28;20053;-73
2023/10/03 11:58:10;;;;;;;2.08;1.10;;;29.70;36.30;;;;;;5014281;28;20379;-73
2023/10/03 12:00:42;;;;;;;1.75;1.00;;;31.50;33.00;;;;;;5030466;28;20100;-73
2023/10/03 12:03:09;;;;;;;1.55;1.40;;;33.60;29.60;;;;;;5031472;28;20045;-73
2023/10/03 12:05:36;;;;;;;1.05;0.60;;;34.10;28.80;;;;;;5029372;28;20516;-73
2023/10/03 12:08:06;;;;;;;0.75;0.75;;;34.40;28.30;;;;;;5032343;28;20033;-73
2023/10/03 12:10:34;;;;;;;3.80;0.80;;;34.50;27.90;;;;;;5033845;28;20528;-73
2023/10/03 12:13:01;;;;;;;1.83;1.25;;;34.50;27.60;;;;;;5034856;28;20064;-73
2023/10/03 12:15:27;;;;;;;2.15;1.27;;;33.30;29.30;;;;;;5032938;28;20033;-73
2023/10/03 12:17:54;;;;;;;1.50;1.05;;;32.60;31.10;;;;;;5033575;28;20450;-73
2023/10/03 12:20:21;;;;;;;1.45;0.80;;;32.80;30.10;;;;;;5033580;28;20437;-74
2023/10/03 12:23:05;;;;;;;1.55;1.17;;;33.70;29.50;;;;;;5034351;28;20041;-73
2023/10/03 12:25:31;;;;;;;3.10;1.77;;;35.90;26.40;;;;;;5033871;28;20498;-73
2023/10/03 12:27:59;;;;;;;11.50;2.33;;;35.10;27.30;;;;;;5017009;28;20053;-73
2023/10/03 12:30:25;;;;;;;3.30;1.35;;;33.60;29.40;;;;;;5033266;28;20041;-73
2023/10/03 12:32:53;;;;;;;2.78;1.73;;;32.50;31.40;;;;;;5033243;28;20029;-73
2023/10/03 12:35:19;;;;;;;1.50;1.00;;;32.10;32.80;;;;;;5032847;28;20073;-73
2023/10/03 12:37:48;;;;;;;3.25;0.80;;;31.80;32.80;;;;;;5032923;28;20029;-73
2023/10/03 12:40:32;;;;;;;1.52;0.90;;;31.80;32.10;;;;;;5015675;28;20041;-73
2023/10/03 12:42:58;;;;;;;1.08;0.68;;;32.20;33.00;;;;;;5034254;28;20076;-73
2023/10/03 12:45:26;;;;;;;1.83;0.98;;;33.40;30.30;;;;;;5033570;28;20041;-73
2023/10/03 12:47:53;;;;;;;1.48;0.85;;;35.40;27.70;;;;;;5034177;28;20071;-73
2023/10/03 12:50:40;;;;;;;1.10;0.85;;;34.70;27.50;;;;;;5033038;28;20087;-74
2023/10/03 12:53:10;;;;;;;;;;;33.90;28.60;;;;;;5034763;28;20588;-73
2023/10/03 12:55:37;;;;;;;1.58;1.10;;;33.40;30.10;;;;;;5033461;28;19913;-73
2023/10/03 12:58:04;;;;;;;1.08;0.85;;;33.40;29.60;;;;;;5034134;28;20046;-73
2023/10/03 13:00:30;;;;;;;2.35;1.67;;;34.30;29.10;;;;;;5032835;28;20029;-74
2023/10/03 13:02:59;;;;;;;1.02;0.90;;;34.10;29.30;;;;;;5016140;28;20372;-73
2023/10/03 13:05:25;;;;;;;2.92;1.17;;;33.50;29.90;;;;;;5016024;28;20120;-74
2023/10/03 13:07:53;;;;;;;2.70;1.60;;;33.90;29.90;;;;;;5033821;28;20038;-73
2023/10/03 13:10:21;;;;;;;0.90;0.77;;;36.20;27.60;;;;;;5031521;28;20443;-74
2023/10/03 13:12:49;;;;;;;1.02;0.85;;;39.10;23.80;;;;;;5016105;28;20402;-73
2023/10/03 13:15:20;;;;;;;2.42;1.02;;;40.90;21.20;;;;;;5015359;28;20033;-73
2023/10/03 13:17:49;;;;;;;1.20;1.08;;;42.20;19.90;;;;;;5032366;28;20124;-74
2023/10/03 13:20:19;;;;;;;1.48;1.27;;;43.50;19.30;;;;;;5014003;28;20030;-74
2023/10/03 13:22:47;;;;;;;1.15;0.75;;;44.50;18.00;;;;;;5016440;28;20062;-74
2023/10/03 13:25:23;;;;;;;2.38;1.52;;;45.30;17.60;;;;;;5031663;28;20090;-74
2023/10/03 13:27:53;;;;;;;1.48;1.35;;;45.50;16.70;;;;;;5032162;28;20136;-74
2023/10/03 13:30:24;;;;;;;2.08;1.23;;;46.10;16.40;;;;;;5032321;28;20025;-74
2023/10/03 13:32:52;;;;;;;3.08;2.10;;;46.70;15.40;;;;;;5033489;28;20052;-73
2023/10/03 13:35:20;;;;;;;0.82;0.80;;;47.30;15.50;;;;;;5015198;28;20079;-73
2023/10/03 13:37:47;;;;;;;3.97;1.52;;;47.40;14.80;;;;;;4999221;28;20051;-74
2023/10/03 13:40:14;;;;;;;3.03;1.50;;;47.10;15.00;;;;;;5030899;28;20480;-74
2023/10/03 13:42:40;;;;;;;0.80;0.80;;;47.40;15.60;;;;;;5015303;28;20414;-74
2023/10/03 13:45:07;;;;;;;1.38;1.25;;;47.40;14.70;;;;;;5015329;28;20382;-74
2023/10/03 13:47:33;;;;;;;1.50;1.35;;;48.00;14.70;;;;;;5031763;28;20539;-74
2023/10/03 13:50:02;;;;;;;1.63;1.38;;;48.60;15.10;;;;;;5031755;28;20042;-73